createdAt,value
2019-02-09T00:01:19.402Z,8.10
2019-02-09T00:04:24.380Z,8.67
2019-02-09T00:07:29.211Z,8.13
2019-02-09T00:10:34.011Z,7.80
2019-02-09T00:13:38.863Z,8.57
2019-02-09T00:16:43.675Z,9.13
2019-02-09T00:19:48.526Z,8.47
2019-02-09T00:22:53.374Z,7.53
2019-02-09T00:25:58.222Z,7.53
2019-02-09T00:29:03.486Z,7.62
2019-02-09T00:32:08.514Z,7.00
2019-02-09T00:35:18.139Z,7.47
2019-02-09T00:38:23.010Z,7.37
2019-02-09T00:41:27.835Z,7.67
2019-02-09T00:44:32.647Z,6.67
2019-02-09T00:47:38.501Z,6.87
2019-02-09T00:50:43.503Z,7.10
2019-02-09T00:53:48.508Z,7.28
2019-02-09T00:56:53.346Z,6.73
2019-02-09T00:59:58.175Z,6.87
2019-02-09T01:03:03.032Z,7.80
2019-02-09T01:06:07.938Z,6.30
2019-02-09T01:09:12.926Z,7.23
2019-02-09T01:12:17.769Z,6.93
2019-02-09T01:15:22.871Z,6.73
2019-02-09T01:18:28.426Z,7.27
2019-02-09T01:21:33.585Z,6.57
2019-02-09T01:24:39.353Z,6.30
2019-02-09T01:27:44.270Z,7.43
2019-02-09T01:30:49.085Z,6.80
2019-02-09T01:33:53.918Z,6.77
2019-02-09T01:36:58.817Z,6.45
2019-02-09T01:40:05.875Z,5.97
2019-02-09T01:43:10.683Z,6.30
2019-02-09T01:46:15.501Z,5.20
2019-02-09T01:49:20.316Z,5.60
2019-02-09T01:52:25.138Z,5.87
2019-02-09T01:55:29.961Z,6.70
2019-02-09T01:58:34.822Z,5.30
2019-02-09T02:01:39.695Z,6.27
2019-02-09T02:04:44.706Z,6.43
2019-02-09T02:07:49.627Z,5.90
2019-02-09T02:10:54.557Z,6.10
2019-02-09T02:13:59.879Z,5.45
2019-02-09T02:17:04.941Z,6.17
2019-02-09T02:20:24.694Z,5.87
2019-02-09T02:23:29.513Z,6.37
2019-02-09T02:26:34.321Z,5.73
2019-02-09T02:29:39.141Z,5.93
2019-02-09T02:32:43.979Z,5.63
2019-02-09T02:35:48.793Z,5.43
2019-02-09T02:38:53.720Z,5.23
2019-02-09T02:41:59.462Z,5.90
2019-02-09T02:45:07.023Z,5.37
2019-02-09T02:48:11.841Z,5.17
2019-02-09T02:51:16.665Z,5.33
2019-02-09T02:54:21.517Z,5.07
2019-02-09T02:57:26.586Z,5.53
2019-02-09T03:00:35.301Z,5.00
2019-02-09T03:03:40.220Z,5.70
2019-02-09T03:06:45.033Z,4.77
2019-02-09T03:09:49.937Z,5.07
2019-02-09T03:12:54.935Z,4.73
2019-02-09T03:16:00.894Z,4.80
2019-02-09T03:19:05.743Z,4.70
2019-02-09T03:22:10.548Z,4.70
2019-02-09T03:25:26.680Z,4.30
2019-02-09T03:28:31.506Z,4.77
2019-02-09T03:31:36.385Z,4.40
2019-02-09T03:34:41.262Z,4.40
2019-02-09T03:37:46.334Z,4.37
2019-02-09T03:40:51.208Z,4.30
2019-02-09T03:43:57.025Z,4.17
2019-02-09T03:47:01.931Z,4.57
2019-02-09T03:50:09.907Z,4.33
2019-02-09T03:53:14.843Z,4.50
2019-02-09T03:56:19.700Z,4.57
2019-02-09T03:59:24.507Z,4.50
2019-02-09T04:02:29.350Z,4.07
2019-02-09T04:05:35.095Z,4.30
2019-02-09T04:08:39.963Z,4.17
2019-02-09T04:11:44.850Z,3.77
2019-02-09T04:14:49.942Z,3.80
2019-02-09T04:17:55.113Z,3.83
2019-02-09T04:20:59.966Z,4.03
2019-02-09T04:24:04.925Z,3.80
2019-02-09T04:27:09.758Z,3.63
2019-02-09T04:30:20.148Z,3.80
2019-02-09T04:33:26.083Z,3.50
2019-02-09T04:36:30.917Z,3.70
2019-02-09T04:39:35.744Z,3.50
2019-02-09T04:42:40.541Z,3.13
2019-02-09T04:45:45.361Z,3.40
2019-02-09T04:48:50.179Z,3.20
2019-02-09T04:51:55.035Z,3.13
2019-02-09T04:54:59.951Z,3.47
2019-02-09T04:58:04.879Z,3.13
2019-02-09T05:01:13.950Z,3.33
2019-02-09T05:04:16.310Z,3.10
2019-02-09T05:07:21.178Z,3.20
2019-02-09T05:10:26.113Z,3.20
2019-02-09T05:13:31.165Z,3.30
2019-02-09T05:16:36.052Z,3.50
2019-02-09T05:19:40.942Z,3.87
2019-02-09T05:22:46.036Z,3.10
2019-02-09T05:25:50.931Z,4.03
2019-02-09T05:28:55.785Z,3.60
2019-02-09T05:32:00.666Z,3.73
2019-02-09T05:35:07.633Z,3.50
2019-02-09T05:38:12.546Z,3.37
2019-02-09T05:41:17.370Z,3.27
2019-02-09T05:44:22.191Z,3.80
2019-02-09T05:47:27.009Z,3.70
2019-02-09T05:50:31.827Z,3.13
2019-02-09T05:53:36.660Z,3.43
2019-02-09T05:56:41.478Z,3.60
2019-02-09T05:59:47.283Z,4.13
2019-02-09T06:02:52.097Z,4.23
2019-02-09T06:05:56.916Z,3.53
2019-02-09T06:09:01.771Z,3.60
2019-02-09T06:12:06.683Z,3.67
2019-02-09T06:15:14.733Z,3.80
2019-02-09T06:18:19.554Z,3.95
2019-02-09T06:21:24.465Z,4.10
2019-02-09T06:24:29.371Z,3.97
2019-02-09T06:27:34.189Z,3.40
2019-02-09T06:30:39.003Z,4.33
2019-02-09T06:33:43.881Z,4.10
2019-02-09T06:36:48.689Z,3.70
2019-02-09T06:39:53.560Z,4.33
2019-02-09T06:42:58.431Z,4.43
2019-02-09T06:46:03.255Z,4.33
2019-02-09T06:49:08.071Z,4.30
2019-02-09T06:52:12.946Z,4.20
2019-02-09T06:55:17.803Z,4.00
2019-02-09T06:58:22.658Z,4.53
2019-02-09T07:01:27.522Z,4.50
2019-02-09T07:04:32.372Z,4.50
2019-02-09T07:07:37.250Z,4.00
2019-02-09T07:10:42.103Z,4.50
2019-02-09T07:13:46.939Z,4.57
2019-02-09T07:16:51.834Z,4.83
2019-02-09T07:19:56.673Z,4.63
2019-02-09T07:23:01.692Z,4.77
2019-02-09T07:26:06.588Z,4.70
2019-02-09T07:29:11.430Z,4.80
2019-02-09T07:32:16.334Z,4.72
2019-02-09T07:35:21.274Z,4.70
2019-02-09T07:38:26.267Z,4.37
2019-02-09T07:41:31.073Z,4.80
2019-02-09T07:44:36.758Z,4.12
2019-02-09T07:47:41.630Z,4.40
2019-02-09T07:50:46.539Z,4.87
2019-02-09T07:53:51.449Z,4.07
2019-02-09T07:56:56.301Z,4.65
2019-02-09T08:00:01.824Z,4.30
2019-02-09T08:03:06.961Z,4.77
2019-02-09T08:06:11.978Z,4.27
2019-02-09T08:09:16.817Z,4.57
2019-02-09T08:12:21.649Z,4.90
2019-02-09T08:15:28.838Z,4.60
2019-02-09T08:18:33.720Z,4.60
2019-02-09T08:21:38.550Z,5.13
2019-02-09T08:24:43.413Z,5.13
2019-02-09T08:27:49.530Z,4.30
2019-02-09T08:30:54.439Z,4.47
2019-02-09T08:33:59.274Z,4.97
2019-02-09T08:37:04.105Z,4.93
2019-02-09T08:40:11.470Z,4.87
2019-02-09T08:43:16.370Z,5.17
2019-02-09T08:46:21.256Z,4.90
2019-02-09T08:49:26.099Z,5.07
2019-02-09T08:52:30.911Z,4.67
2019-02-09T08:55:35.744Z,4.60
2019-02-09T08:58:40.566Z,4.57
2019-02-09T09:01:45.362Z,4.90
2019-02-09T09:04:50.204Z,4.80
2019-02-09T09:07:55.183Z,4.07
2019-02-09T09:11:01.413Z,3.77
2019-02-09T09:14:06.367Z,4.37
2019-02-09T09:17:11.250Z,4.47
2019-02-09T09:20:24.852Z,4.53
2019-02-09T09:23:29.694Z,4.33
2019-02-09T09:26:34.557Z,3.97
2019-02-09T09:29:39.361Z,3.87
2019-02-09T09:32:44.177Z,3.53
2019-02-09T09:35:49.046Z,3.90
2019-02-09T09:38:53.857Z,3.60
2019-02-09T09:41:58.712Z,3.60
2019-02-09T09:45:05.666Z,3.50
2019-02-09T09:48:12.867Z,4.17
2019-02-09T09:51:17.728Z,3.20
2019-02-09T09:54:22.563Z,3.83
2019-02-09T09:57:27.391Z,3.50
2019-02-09T10:00:32.478Z,3.77
2019-02-09T10:03:37.416Z,3.37
2019-02-09T10:06:42.293Z,3.37
2019-02-09T10:09:47.139Z,3.00
2019-02-09T10:12:52.135Z,3.27
2019-02-09T10:15:56.948Z,2.93
2019-02-09T10:19:01.787Z,3.30
2019-02-09T10:22:06.603Z,2.90
2019-02-09T10:25:13.154Z,3.17
2019-02-09T10:28:18.010Z,2.87
2019-02-09T10:31:22.910Z,3.00
2019-02-09T10:34:27.765Z,2.90
2019-02-09T10:37:32.619Z,3.20
2019-02-09T10:40:38.102Z,3.20
2019-02-09T10:43:43.425Z,3.07
2019-02-09T10:46:48.266Z,2.97
2019-02-09T10:49:53.089Z,2.50
2019-02-09T10:52:57.976Z,2.63
2019-02-09T10:56:02.981Z,2.67
2019-02-09T10:59:07.942Z,2.40
2019-02-09T11:02:12.753Z,2.50
2019-02-09T11:05:18.189Z,2.70
2019-02-09T11:08:42.602Z,2.60
2019-02-09T11:11:47.642Z,2.43
2019-02-09T11:14:52.485Z,2.20
2019-02-09T11:17:57.595Z,2.43
2019-02-09T11:21:02.427Z,2.43
2019-02-09T11:24:07.277Z,2.40
2019-02-09T11:27:12.100Z,2.40
2019-02-09T11:30:22.862Z,2.40
2019-02-09T11:33:27.685Z,2.50
2019-02-09T11:36:32.517Z,2.10
2019-02-09T11:39:37.337Z,2.50
2019-02-09T11:42:42.169Z,2.33
2019-02-09T11:45:46.988Z,2.30
2019-02-09T11:48:51.851Z,2.30
2019-02-09T11:51:56.701Z,2.67
2019-02-09T11:55:01.520Z,2.40
2019-02-09T11:58:06.391Z,2.50
2019-02-09T12:01:11.225Z,2.40
2019-02-09T12:04:16.051Z,2.40
2019-02-09T12:07:20.901Z,2.37
2019-02-09T12:10:27.938Z,2.30
2019-02-09T12:13:32.967Z,2.10
2019-02-09T12:16:37.892Z,2.17
2019-02-09T12:19:42.899Z,2.10
2019-02-09T12:22:47.786Z,2.27
2019-02-09T12:25:52.624Z,2.20
2019-02-09T12:28:58.391Z,2.20
2019-02-09T12:32:04.894Z,2.17
2019-02-09T12:35:12.378Z,2.10
2019-02-09T12:38:17.187Z,1.97
2019-02-09T12:41:22.037Z,2.33
2019-02-09T12:44:26.893Z,2.10
2019-02-09T12:47:31.744Z,1.93
2019-02-09T12:50:36.788Z,2.30
2019-02-09T12:53:41.695Z,2.00
2019-02-09T12:56:46.560Z,2.10
2019-02-09T12:59:51.393Z,1.90
2019-02-09T13:02:57.886Z,1.93
2019-02-09T13:06:02.731Z,2.40
2019-02-09T13:09:08.117Z,1.70
2019-02-09T13:12:12.938Z,2.10
2019-02-09T13:15:22.873Z,1.80
2019-02-09T13:18:27.713Z,2.00
2019-02-09T13:21:32.526Z,2.00
2019-02-09T13:24:38.989Z,2.25
2019-02-09T13:27:43.902Z,2.17
2019-02-09T13:30:48.762Z,2.23
2019-02-09T13:33:53.567Z,2.10
2019-02-09T13:36:58.393Z,2.20
2019-02-09T13:40:03.781Z,2.10
2019-02-09T13:43:08.602Z,2.57
2019-02-09T13:46:13.425Z,2.20
2019-02-09T13:49:18.303Z,2.13
2019-02-09T13:52:23.193Z,2.50
2019-02-09T13:55:28.092Z,2.67
2019-02-09T13:58:33.390Z,2.20
2019-02-09T14:01:38.197Z,2.27
2019-02-09T14:04:43.083Z,2.62
2019-02-09T14:07:48.050Z,2.50
2019-02-09T14:10:52.942Z,2.17
2019-02-09T14:13:57.841Z,2.27
2019-02-09T14:17:02.670Z,2.80
2019-02-09T14:20:10.121Z,2.58
2019-02-09T14:23:15.305Z,2.47
2019-02-09T14:26:20.243Z,2.33
2019-02-09T14:29:25.078Z,2.30
2019-02-09T14:32:30.008Z,2.30
2019-02-09T14:35:35.107Z,2.50
2019-02-09T14:38:39.931Z,2.37
2019-02-09T14:41:44.758Z,2.30
2019-02-09T14:44:49.644Z,2.63
2019-02-09T14:47:54.574Z,2.80
2019-02-09T14:50:59.482Z,2.53
2019-02-09T14:54:04.649Z,2.83
2019-02-09T14:57:09.476Z,3.90
2019-02-09T15:00:22.888Z,2.87
2019-02-09T15:03:30.616Z,2.63
2019-02-09T15:06:34.248Z,2.50
2019-02-09T15:09:39.117Z,2.90
2019-02-09T15:12:43.957Z,2.30
2019-02-09T15:15:51.892Z,2.10
2019-02-09T15:18:56.769Z,2.40
2019-02-09T15:22:01.659Z,2.60
2019-02-09T15:25:07.949Z,2.40
2019-02-09T15:28:12.858Z,2.70
2019-02-09T15:31:17.857Z,2.30
2019-02-09T15:34:22.679Z,2.60
2019-02-09T15:37:27.504Z,3.00
2019-02-09T15:40:33.332Z,2.65
2019-02-09T15:43:39.183Z,2.73
2019-02-09T15:46:44.013Z,2.57
2019-02-09T15:49:48.914Z,2.70
2019-02-09T15:52:53.775Z,2.90
2019-02-09T15:55:58.942Z,2.80
2019-02-09T15:59:04.175Z,3.10
2019-02-09T16:02:09.014Z,2.60
2019-02-09T16:05:14.576Z,2.60
2019-02-09T16:08:19.401Z,3.00
2019-02-09T16:11:24.247Z,2.47
2019-02-09T16:14:29.136Z,2.57
2019-02-09T16:17:34.041Z,2.83
2019-02-09T16:20:38.861Z,3.03
2019-02-09T16:23:43.731Z,2.90
2019-02-09T16:26:49.551Z,3.37
2019-02-09T16:29:54.419Z,2.47
2019-02-09T16:32:59.305Z,2.70
2019-02-09T16:36:04.633Z,2.77
2019-02-09T16:39:09.467Z,3.15
2019-02-09T16:42:15.398Z,2.65
2019-02-09T16:45:25.735Z,2.83
2019-02-09T16:48:30.636Z,4.03
2019-02-09T16:51:35.488Z,3.60
2019-02-09T16:54:40.309Z,2.90
2019-02-09T16:57:45.226Z,3.20
2019-02-09T17:00:50.216Z,2.77
2019-02-09T17:03:55.035Z,3.30
2019-02-09T17:06:59.895Z,3.60
2019-02-09T17:10:07.914Z,3.00
2019-02-09T17:13:12.715Z,2.97
2019-02-09T17:16:17.529Z,3.40
2019-02-09T17:19:22.361Z,3.60
2019-02-09T17:43:16.575Z,3.60
2019-02-09T17:46:21.402Z,4.00
2019-02-09T17:49:26.390Z,3.13
2019-02-09T17:52:31.233Z,3.33
2019-02-09T17:55:36.149Z,2.90
2019-02-09T17:58:40.969Z,3.17
2019-02-09T18:01:45.835Z,2.63
2019-02-09T18:04:50.682Z,3.30
2019-02-09T18:07:55.490Z,3.20
2019-02-09T18:11:00.309Z,3.57
2019-02-09T18:14:05.514Z,2.83
2019-02-09T18:17:10.335Z,3.13
2019-02-09T18:20:17.273Z,3.03
2019-02-09T18:23:22.092Z,3.30
2019-02-09T18:26:26.927Z,3.17
2019-02-09T18:29:31.769Z,3.40
2019-02-09T18:32:36.627Z,3.10
2019-02-09T18:35:41.463Z,3.30
2019-02-09T18:38:46.316Z,3.00
2019-02-09T18:41:51.182Z,3.73
2019-02-09T18:44:56.129Z,3.00
2019-02-09T18:48:01.906Z,3.37
2019-02-09T18:51:06.724Z,3.57
2019-02-09T18:54:11.561Z,4.23
2019-02-09T18:57:16.366Z,3.27
2019-02-09T19:00:30.050Z,3.73
2019-02-09T19:03:34.891Z,3.37
2019-02-09T19:06:39.737Z,3.50
2019-02-09T19:09:44.658Z,3.60
2019-02-09T19:12:49.544Z,3.50
2019-02-09T19:15:55.290Z,3.50
2019-02-09T19:19:00.123Z,4.20
2019-02-09T19:22:05.413Z,3.50
2019-02-09T19:25:13.294Z,3.80
2019-02-09T19:28:18.114Z,4.10
2019-02-09T19:31:22.986Z,4.17
2019-02-09T19:34:27.812Z,3.63
2019-02-09T19:37:32.652Z,3.80
2019-02-09T19:40:37.558Z,4.07
2019-02-09T19:43:42.370Z,4.17
2019-02-09T19:46:47.249Z,3.87
2019-02-09T19:49:52.099Z,3.80
2019-02-09T19:52:56.907Z,3.97
2019-02-09T19:56:01.763Z,3.40
2019-02-09T19:59:06.610Z,3.40
2019-02-09T20:02:11.435Z,3.77
2019-02-09T20:05:19.915Z,3.40
2019-02-09T20:08:22.989Z,3.10
2019-02-09T20:11:28.183Z,3.40
2019-02-09T20:14:33.044Z,3.67
2019-02-09T20:17:38.181Z,3.70
2019-02-09T20:20:47.301Z,3.50
2019-02-09T20:23:49.540Z,2.97
2019-02-09T20:26:54.888Z,3.70
2019-02-09T20:30:00.351Z,3.87
2019-02-09T20:33:06.522Z,3.30
2019-02-09T20:36:11.329Z,3.20
2019-02-09T20:39:16.149Z,3.27
2019-02-09T20:42:20.954Z,3.60
2019-02-09T20:45:26.103Z,3.20
2019-02-09T20:48:30.901Z,3.40
2019-02-09T20:51:36.178Z,3.63
2019-02-09T20:54:41.367Z,3.23
2019-02-09T20:57:46.276Z,3.23
2019-02-09T21:00:51.112Z,3.83
2019-02-09T21:03:56.235Z,3.30
2019-02-09T21:07:01.202Z,4.03
2019-02-09T21:10:16.167Z,2.80
2019-02-09T21:13:21.257Z,2.93
2019-02-09T21:16:26.261Z,3.20
2019-02-09T21:19:31.104Z,3.40
2019-02-09T21:22:36.228Z,3.00
2019-02-09T21:25:47.983Z,3.53
2019-02-09T21:28:52.994Z,3.13
2019-02-09T21:31:57.891Z,3.03
2019-02-09T21:35:02.742Z,3.23
2019-02-09T21:38:07.891Z,3.53
2019-02-09T21:41:12.726Z,4.23
2019-02-09T21:44:17.775Z,4.00
2019-02-09T21:47:22.678Z,3.80
2019-02-09T21:50:32.334Z,3.50
2019-02-09T21:53:38.415Z,3.57
2019-02-09T21:56:43.232Z,4.20
2019-02-09T21:59:48.204Z,3.97
2019-02-09T22:02:54.174Z,3.50
2019-02-09T22:05:59.335Z,3.75
2019-02-09T22:09:06.981Z,3.90
2019-02-09T22:12:12.100Z,3.67
2019-02-09T22:15:18.909Z,3.83
2019-02-09T22:18:24.193Z,3.57
2019-02-09T22:21:29.462Z,3.77
2019-02-09T22:24:34.324Z,3.63
2019-02-09T22:27:39.242Z,3.50
2019-02-09T22:30:44.118Z,3.87
2019-02-09T22:33:48.989Z,3.73
2019-02-09T22:36:53.922Z,3.90
2019-02-09T22:39:58.860Z,4.90
2019-02-09T22:43:04.383Z,3.83
2019-02-09T22:46:09.219Z,4.07
2019-02-09T22:49:14.062Z,4.08
2019-02-09T22:52:19.807Z,3.90
2019-02-09T22:55:24.716Z,3.50
2019-02-09T22:58:30.489Z,3.75
2019-02-09T23:01:38.399Z,4.27
2019-02-09T23:04:46.324Z,3.37
2019-02-09T23:07:51.226Z,3.87
2019-02-09T23:10:56.052Z,4.00
2019-02-09T23:14:00.882Z,3.60
2019-02-09T23:17:05.703Z,3.97
2019-02-09T23:20:10.582Z,3.97
2019-02-09T23:23:15.382Z,5.03
2019-02-09T23:26:20.228Z,3.33
2019-02-09T23:29:25.029Z,3.87
2019-02-09T23:32:29.879Z,3.63
2019-02-09T23:35:34.785Z,4.27
2019-02-09T23:38:39.729Z,4.20
2019-02-09T23:41:44.649Z,3.83
2019-02-09T23:44:49.527Z,3.73
2019-02-09T23:47:54.337Z,4.67
2019-02-09T23:50:59.168Z,3.60
2019-02-09T23:54:04.002Z,3.53
2019-02-09T23:57:08.849Z,3.50
